Stations météo

réclame
Mon MeteoGroup
Siracusa, Italie (16464): Température de l'air & dewpoint: 10.07.2020 01:00:00 - 16.07.2020 01:00:00 (CEST)Siracusa, Italie (16464): Vitesse du vent: 10.07.2020 01:00:00 - 16.07.2020 01:00:00 (CEST)Siracusa, Italie (16464): Direction du vent: 10.07.2020 01:00:00 - 16.07.2020 01:00:00 (CEST)Siracusa, Italie (16464): reduced air pressure: 10.07.2020 01:00:00 - 16.07.2020 01:00:00 (CEST)Siracusa, Italie (16464): Quantités de précipitations: 10.07.2020 01:00:00 - 16.07.2020 01:00:00 (CEST)
Date & Time tt [°C] td [°C] ff [km/h] ff [knt] dd ppp [hPa] rr [mm]
16.07.2020 01:00:00 22,3 17,8 2 1 W 1014,9 -
16.07.2020 00:00:00 22,3 18,0 2 1 SW 1015,0 -
15.07.2020 23:00:00 24,3 19,3 0 0 N 1015,4 -
15.07.2020 22:00:00 24,1 18,4 5 3 WNW 1015,3 -
15.07.2020 21:00:00 24,0 19,0 2 1 SSW 1014,9 -
15.07.2020 20:00:00 24,3 19,5 8 4 SSW 1015,3 0,0
15.07.2020 19:00:00 23,8 19,0 13 7 WNW 1015,7 -
15.07.2020 18:00:00 24,0 19,0 15 8 WNW 1015,5 -
15.07.2020 17:00:00 27,8 22,7 29 16 SW 1014,9 -
15.07.2020 16:00:00 26,3 22,7 37 20 SW 1013,9 -
15.07.2020 15:00:00 25,5 21,5 24 13 SSW 1015,1 -
15.07.2020 14:00:00 27,5 22,4 24 13 SSW 1015,1 0,0
15.07.2020 13:00:00 27,5 22,6 16 9 SW 1015,4 -
15.07.2020 12:00:00 27,1 22,7 13 7 W 1015,5 -
15.07.2020 11:00:00 26,6 21,7 9 5 W 1015,5 -
15.07.2020 10:00:00 26,5 22,3 4 2 W 1015,3 -
15.07.2020 09:00:00 24,8 22,2 4 2 WNW 1015,1 -
15.07.2020 08:00:00 22,8 21,9 0 0 N 1014,9 0,0
15.07.2020 07:00:00 20,3 18,0 4 2 S 1014,5 -
15.07.2020 06:00:00 20,0 17,5 4 2 S 1013,9 -
15.07.2020 05:00:00 20,5 18,0 4 2 S 1013,6 -
15.07.2020 04:00:00 20,8 18,3 4 2 SSW 1013,4 -
15.07.2020 03:00:00 21,2 18,7 4 2 S 1013,4 -
15.07.2020 02:00:00 21,7 19,4 4 2 S 1013,9 0,0
15.07.2020 01:00:00 22,3 20,0 0 0 N 1014,0 -
15.07.2020 00:00:00 22,4 19,7 5 3 S 1014,5 -
14.07.2020 23:00:00 23,4 20,1 2 1 S 1014,0 -
14.07.2020 22:00:00 24,6 21,3 2 1 SW 1013,6 -
14.07.2020 21:00:00 25,3 21,5 0 0 N 1012,9 -
14.07.2020 20:00:00 25,9 20,8 4 2 WNW 1012,6 0,0
14.07.2020 19:00:00 25,7 21,9 4 2 WNW 1012,6 -
14.07.2020 18:00:00 25,1 21,9 9 5 SW 1012,4 -
14.07.2020 17:00:00 25,1 21,1 9 5 NW 1013,0 -
14.07.2020 16:00:00 25,9 21,3 15 8 SSW 1012,5 -
14.07.2020 15:00:00 26,1 20,6 21 11 WNW 1012,3 -
14.07.2020 14:00:00 27,6 21,6 18 10 WNW 1012,7 0,0
14.07.2020 13:00:00 27,5 21,5 18 10 W 1012,7 -
14.07.2020 12:00:00 27,2 21,4 16 9 SSW 1013,0 -
14.07.2020 11:00:00 27,0 21,5 13 7 SW 1013,1 -
14.07.2020 10:00:00 26,4 21,6 11 6 SW 1013,0 -
14.07.2020 09:00:00 25,7 20,9 5 3 SSW 1013,1 -
14.07.2020 08:00:00 24,6 20,2 4 2 W 1012,8 0,0
14.07.2020 07:00:00 21,8 17,7 4 2 WNW 1012,7 -
14.07.2020 06:00:00 21,3 16,8 4 2 W 1012,3 -
14.07.2020 05:00:00 21,8 17,1 2 1 W 1012,2 -
14.07.2020 04:00:00 22,5 18,0 0 0 N 1012,3 -
14.07.2020 03:00:00 23,3 18,5 2 1 W 1012,3 -
14.07.2020 02:00:00 23,7 19,1 0 0 N 1012,9 0,0
14.07.2020 01:00:00 24,4 20,0 4 2 W 1013,5 -
14.07.2020 00:00:00 25,3 21,3 8 4 SSW 1013,5 -
13.07.2020 23:00:00 25,4 21,4 11 6 SW 1013,8 -
13.07.2020 22:00:00 25,7 21,5 9 5 SSW 1013,7 -
13.07.2020 21:00:00 25,8 21,2 8 4 SW 1013,3 -
13.07.2020 20:00:00 26,3 21,0 11 6 SW 1013,1 0,0
13.07.2020 19:00:00 26,9 20,9 11 6 SW 1013,1 -
13.07.2020 18:00:00 27,4 20,7 16 9 WNW 1012,8 -
13.07.2020 17:00:00 28,1 21,1 15 8 W 1013,2 -
13.07.2020 16:00:00 28,2 21,7 15 8 WNW 1013,6 -
13.07.2020 15:00:00 28,5 21,0 16 9 W 1014,1 -
13.07.2020 14:00:00 28,2 20,9 18 10 SSW 1014,3 0,0
13.07.2020 13:00:00 28,0 22,2 16 9 SW 1014,5 -
13.07.2020 12:00:00 28,0 22,4 13 7 W 1014,6 -
13.07.2020 11:00:00 28,4 21,4 8 4 W 1014,7 -
13.07.2020 10:00:00 28,2 21,9 8 4 W 1014,5 -
13.07.2020 09:00:00 27,1 22,0 11 6 WSW 1014,7 -
13.07.2020 08:00:00 26,1 21,0 11 6 SSW 1014,7 0,0
13.07.2020 07:00:00 25,0 21,2 11 6 SSW 1014,4 -
13.07.2020 06:00:00 24,0 19,9 2 1 SSW 1014,3 -
13.07.2020 05:00:00 23,3 18,5 2 1 SW 1014,0 -
13.07.2020 04:00:00 23,0 17,2 0 0 N 1014,0 -
13.07.2020 03:00:00 24,0 18,1 2 1 SSW 1014,6 -
13.07.2020 02:00:00 25,8 20,8 2 1 SSW 1015,3 0,0
13.07.2020 01:00:00 26,3 21,2 9 5 SSW 1015,6 -
13.07.2020 00:00:00 26,6 20,4 4 2 SSW 1015,7 -
12.07.2020 23:00:00 26,9 19,5 4 2 SW 1015,6 -
12.07.2020 22:00:00 27,5 19,5 4 2 SSW 1015,5 -
12.07.2020 21:00:00 27,6 21,1 4 2 SSW 1014,9 -
12.07.2020 20:00:00 28,2 20,9 9 5 S 1014,7 0,0
12.07.2020 19:00:00 29,1 19,7 8 4 WSW 1014,4 -
12.07.2020 18:00:00 28,8 21,3 8 4 W 1014,5 -
12.07.2020 17:00:00 28,9 21,6 9 5 W 1014,7 -
12.07.2020 16:00:00 30,3 19,6 9 5 W 1014,8 -
12.07.2020 15:00:00 30,2 17,9 11 6 W 1014,9 -
12.07.2020 14:00:00 30,7 18,4 9 5 W 1015,0 0,0
12.07.2020 13:00:00 29,7 19,1 15 8 WNW 1015,2 -
12.07.2020 12:00:00 29,8 19,2 21 11 W 1015,0 -
12.07.2020 11:00:00 29,4 17,8 16 9 W 1014,9 -
12.07.2020 10:00:00 28,0 20,0 13 7 W 1014,8 -
12.07.2020 09:00:00 27,1 19,1 22 12 WNW 1014,6 -
12.07.2020 08:00:00 26,5 19,8 8 4 WSW 1014,4 0,0
12.07.2020 07:00:00 23,1 17,0 0 0 N 1014,2 -
12.07.2020 06:00:00 22,5 16,5 5 3 SSW 1013,6 -
12.07.2020 05:00:00 22,5 16,5 2 1 SW 1013,5 -
12.07.2020 04:00:00 22,8 16,5 4 2 SW 1013,1 -
12.07.2020 03:00:00 23,7 17,1 4 2 SSW 1013,6 -
12.07.2020 02:00:00 24,3 17,0 4 2 SW 1013,9 0,0
12.07.2020 01:00:00 25,8 18,4 2 1 SW 1014,3 -
12.07.2020 00:00:00 26,6 18,7 5 3 SW 1014,7 -
11.07.2020 23:00:00 27,7 19,7 5 3 SW 1014,6 -
11.07.2020 22:00:00 28,0 19,7 4 2 SW 1014,6 -
11.07.2020 21:00:00 29,0 18,4 5 3 WNW 1014,1 -
11.07.2020 20:00:00 29,4 19,1 4 2 W 1014,0 0,0
11.07.2020 19:00:00 30,5 20,7 8 4 W 1013,8 -
11.07.2020 18:00:00 29,6 23,0 13 7 SSW 1013,7 -
11.07.2020 17:00:00 31,3 18,6 16 9 S 1013,9 -
11.07.2020 16:00:00 30,9 20,8 15 8 SSW 1014,4 -
11.07.2020 15:00:00 29,9 21,0 13 7 W 1014,5 -
11.07.2020 14:00:00 29,7 20,5 15 8 SSW 1015,0 0,0
11.07.2020 13:00:00 28,8 21,8 11 6 WNW 1015,3 -
11.07.2020 12:00:00 27,5 20,5 11 6 W 1015,4 -
11.07.2020 11:00:00 27,5 21,2 11 6 W 1015,6 -
11.07.2020 10:00:00 28,4 20,9 5 3 W 1015,2 -
11.07.2020 09:00:00 27,1 19,9 8 4 WSW 1015,1 -
11.07.2020 08:00:00 24,4 19,4 0 0 N 1015,0 0,0
11.07.2020 07:00:00 22,1 17,4 0 0 N 1014,6 -
11.07.2020 06:00:00 21,6 16,5 2 1 SW 1014,4 -
11.07.2020 05:00:00 22,2 17,1 2 1 SW 1014,4 -
11.07.2020 04:00:00 22,5 17,3 0 0 N 1014,4 -
11.07.2020 03:00:00 23,0 17,6 0 0 N 1014,7 -
11.07.2020 02:00:00 23,4 18,0 0 0 N 1015,2 0,0
11.07.2020 01:00:00 24,2 18,3 2 1 SSW 1015,3 -
11.07.2020 00:00:00 25,3 19,6 0 0 N 1015,3 -
10.07.2020 23:00:00 26,0 20,9 4 2 SW 1015,1 -
10.07.2020 22:00:00 26,4 21,1 5 3 SW 1015,0 -
10.07.2020 21:00:00 26,5 20,8 8 4 SSW 1014,6 -
10.07.2020 20:00:00 26,7 21,6 11 6 SSW 1014,4 0,0
10.07.2020 19:00:00 27,5 22,4 13 7 SSW 1014,5 -
10.07.2020 18:00:00 27,8 21,8 13 7 W 1014,4 -
10.07.2020 17:00:00 28,6 20,8 13 7 S 1014,8 -
10.07.2020 16:00:00 28,3 22,5 9 5 WSW 1015,0 -
10.07.2020 15:00:00 28,3 22,7 13 7 WNW 1015,4 -
10.07.2020 14:00:00 27,9 21,4 11 6 W 1015,4 0,0
10.07.2020 13:00:00 26,9 21,6 11 6 W 1015,6 -
10.07.2020 12:00:00 27,4 21,4 11 6 W 1015,6 -
10.07.2020 11:00:00 27,1 21,3 9 5 W 1015,6 -
10.07.2020 10:00:00 27,6 21,8 8 4 W 1015,4 -
10.07.2020 09:00:00 26,0 20,9 4 2 WSW 1015,5 -
10.07.2020 08:00:00 24,0 19,9 0 0 N 1015,4 0,0
10.07.2020 07:00:00 22,0 17,9 0 0 N 1015,2 -
10.07.2020 06:00:00 21,7 17,6 2 1 SW 1015,0 -
10.07.2020 05:00:00 23,1 19,4 2 1 SSW 1014,8 -
10.07.2020 04:00:00 23,9 20,8 4 2 SW 1015,1 -
10.07.2020 03:00:00 24,1 21,0 4 2 SW 1015,4 -
10.07.2020 02:00:00 24,3 21,6 8 4 SW 1015,5 0,0
10.07.2020 01:00:00 24,4 21,7 9 5 SW 1015,8 -

tt = Température de l'air
td = dewpoint
ff = Vitesse du vent
dd = Direction du vent
ppp = reduced air pressure
rr = Quantités de précipitations

stations d'obs. à proximité